createdAt,value
2017-01-26T00:00:20.193Z,0
2017-01-26T00:01:20.161Z,0
2017-01-26T00:02:20.135Z,0
2017-01-26T00:03:20.109Z,0
2017-01-26T00:04:20.091Z,0
2017-01-26T00:05:20.065Z,0
2017-01-26T00:06:20.030Z,0
2017-01-26T00:07:20.006Z,0
2017-01-26T00:08:19.979Z,0
2017-01-26T00:09:19.954Z,0
2017-01-26T00:10:19.922Z,0
2017-01-26T00:11:19.896Z,0
2017-01-26T00:12:19.870Z,0
2017-01-26T00:13:19.840Z,0
2017-01-26T00:14:19.809Z,0
2017-01-26T00:15:19.782Z,0
2017-01-26T00:16:19.752Z,0
2017-01-26T00:17:19.739Z,0
2017-01-26T00:18:19.705Z,0
2017-01-26T00:19:19.682Z,0
2017-01-26T00:20:19.654Z,0
2017-01-26T00:21:19.628Z,0
2017-01-26T00:22:19.606Z,0
2017-01-26T00:23:19.563Z,0
2017-01-26T00:24:19.561Z,0
2017-01-26T00:25:19.514Z,0
2017-01-26T00:26:19.504Z,0
2017-01-26T00:27:19.863Z,0
2017-01-26T00:28:19.456Z,0
2017-01-26T00:29:19.413Z,0
2017-01-26T00:30:19.403Z,0
2017-01-26T00:31:19.752Z,0
2017-01-26T00:32:19.334Z,0
2017-01-26T00:33:19.305Z,0
2017-01-26T00:34:19.305Z,0
2017-01-26T00:35:19.244Z,0
2017-01-26T00:36:19.226Z,0
2017-01-26T00:37:19.194Z,0
2017-01-26T00:38:19.168Z,0
2017-01-26T00:39:19.148Z,0
2017-01-26T00:40:19.513Z,0
2017-01-26T00:41:19.086Z,0
2017-01-26T00:42:19.076Z,0
2017-01-26T00:43:19.032Z,0
2017-01-26T00:44:19.004Z,0
2017-01-26T00:45:18.979Z,0
2017-01-26T00:46:18.970Z,0
2017-01-26T00:47:19.350Z,0
2017-01-26T00:48:18.899Z,0
2017-01-26T00:49:18.879Z,0
2017-01-26T00:50:18.842Z,0
2017-01-26T00:51:18.826Z,0
2017-01-26T00:52:18.786Z,0
2017-01-26T00:53:18.790Z,0
2017-01-26T00:54:18.741Z,0
2017-01-26T00:55:18.708Z,0
2017-01-26T00:56:18.681Z,0
2017-01-26T00:57:18.651Z,0
2017-01-26T00:58:18.627Z,0
2017-01-26T00:59:18.607Z,0
2017-01-26T01:00:18.571Z,0
2017-01-26T01:01:18.564Z,0
2017-01-26T01:02:18.522Z,0
2017-01-26T01:03:18.496Z,0
2017-01-26T01:04:18.464Z,0
2017-01-26T01:05:18.436Z,0
2017-01-26T01:06:18.414Z,0
2017-01-26T01:07:18.384Z,0
2017-01-26T01:08:18.358Z,0
2017-01-26T01:09:18.335Z,0
2017-01-26T01:10:18.304Z,0
2017-01-26T01:11:18.279Z,0
2017-01-26T01:12:18.256Z,0
2017-01-26T01:13:18.224Z,0
2017-01-26T01:14:18.199Z,0
2017-01-26T01:15:18.171Z,0
2017-01-26T01:16:18.145Z,0
2017-01-26T01:17:18.127Z,0
2017-01-26T01:18:18.088Z,0
2017-01-26T01:19:18.061Z,0
2017-01-26T01:20:18.035Z,0
2017-01-26T01:21:18.013Z,0
2017-01-26T01:22:17.979Z,0
2017-01-26T01:23:17.957Z,0
2017-01-26T01:24:17.949Z,0
2017-01-26T01:25:17.903Z,0
2017-01-26T01:26:17.882Z,0
2017-01-26T01:27:17.844Z,0
2017-01-26T01:28:17.821Z,0
2017-01-26T01:29:17.796Z,0
2017-01-26T01:30:17.766Z,0
2017-01-26T01:31:17.734Z,0
2017-01-26T01:32:17.713Z,0
2017-01-26T01:33:17.713Z,0
2017-01-26T01:34:17.657Z,0
2017-01-26T01:35:17.629Z,0
2017-01-26T01:36:17.624Z,0
2017-01-26T01:37:17.572Z,0
2017-01-26T01:38:17.556Z,0
2017-01-26T01:39:17.527Z,0
2017-01-26T01:40:17.503Z,0
2017-01-26T01:41:17.471Z,0
2017-01-26T01:42:17.836Z,0
2017-01-26T01:43:17.411Z,0
2017-01-26T01:44:17.394Z,0
2017-01-26T01:45:17.360Z,0
2017-01-26T01:46:17.331Z,0
2017-01-26T01:47:17.308Z,0
2017-01-26T01:48:17.300Z,0
2017-01-26T01:49:17.252Z,0
2017-01-26T01:50:17.224Z,0
2017-01-26T01:51:17.193Z,0
2017-01-26T01:52:17.180Z,0
2017-01-26T01:53:17.149Z,0
2017-01-26T01:54:17.115Z,0
2017-01-26T01:55:17.083Z,0
2017-01-26T01:56:17.070Z,0
2017-01-26T01:57:17.035Z,0
2017-01-26T01:58:17.214Z,0
2017-01-26T01:59:16.983Z,0
2017-01-26T02:00:16.957Z,0
2017-01-26T02:01:16.925Z,0
2017-01-26T02:02:16.900Z,0
2017-01-26T02:03:16.878Z,0
2017-01-26T02:04:16.849Z,0
2017-01-26T02:05:16.815Z,0
2017-01-26T02:06:17.189Z,0
2017-01-26T02:07:16.765Z,0
2017-01-26T02:08:16.735Z,0
2017-01-26T02:09:16.712Z,0
2017-01-26T02:10:16.679Z,0
2017-01-26T02:11:16.647Z,0
2017-01-26T02:12:17.036Z,0
2017-01-26T02:13:16.599Z,0
2017-01-26T02:14:16.570Z,0
2017-01-26T02:15:16.545Z,0
2017-01-26T02:16:16.521Z,0
2017-01-26T02:17:16.487Z,0
2017-01-26T02:18:16.461Z,0
2017-01-26T02:19:16.434Z,0
2017-01-26T02:20:16.404Z,0
2017-01-26T02:21:16.377Z,0
2017-01-26T02:22:16.349Z,0
2017-01-26T02:23:16.327Z,0
2017-01-26T02:24:16.297Z,0
2017-01-26T02:25:16.276Z,0
2017-01-26T02:26:16.244Z,0
2017-01-26T02:27:16.214Z,0
2017-01-26T02:28:16.194Z,0
2017-01-26T02:29:16.166Z,0
2017-01-26T02:30:16.138Z,0
2017-01-26T02:31:16.121Z,0
2017-01-26T02:32:16.084Z,0
2017-01-26T02:33:16.063Z,0
2017-01-26T02:34:16.030Z,0
2017-01-26T02:35:16.011Z,0
2017-01-26T02:36:15.979Z,0
2017-01-26T02:37:15.945Z,0
2017-01-26T02:38:15.918Z,0
2017-01-26T02:39:15.891Z,0
2017-01-26T02:40:15.867Z,0
2017-01-26T02:41:15.839Z,0
2017-01-26T02:42:16.206Z,0
2017-01-26T02:43:15.786Z,0
2017-01-26T02:44:15.755Z,0
2017-01-26T02:45:16.137Z,0
2017-01-26T02:46:15.694Z,0
2017-01-26T02:47:15.683Z,0
2017-01-26T02:48:15.644Z,0
2017-01-26T02:49:15.628Z,0
2017-01-26T02:50:15.606Z,0
2017-01-26T02:51:15.569Z,0
2017-01-26T02:52:15.542Z,0
2017-01-26T02:53:15.508Z,0
2017-01-26T02:54:15.484Z,0
2017-01-26T02:55:15.454Z,0
2017-01-26T02:56:15.429Z,0
2017-01-26T02:57:15.401Z,0
2017-01-26T02:58:15.382Z,0
2017-01-26T02:59:15.341Z,0
2017-01-26T03:00:15.317Z,0
2017-01-26T03:01:15.288Z,0
2017-01-26T03:02:15.663Z,0
2017-01-26T03:03:15.237Z,0
2017-01-26T03:04:15.615Z,0
2017-01-26T03:05:15.179Z,0
2017-01-26T03:06:15.553Z,0
2017-01-26T03:07:15.126Z,0
2017-01-26T03:08:15.097Z,0
2017-01-26T03:09:15.084Z,0
2017-01-26T03:10:15.078Z,0
2017-01-26T03:11:15.023Z,0
2017-01-26T03:12:14.996Z,0
2017-01-26T03:13:14.966Z,0
2017-01-26T03:14:14.935Z,0
2017-01-26T03:15:14.908Z,0
2017-01-26T03:16:14.888Z,0
2017-01-26T03:17:14.854Z,0
2017-01-26T03:18:14.827Z,0
2017-01-26T03:19:14.800Z,0
2017-01-26T03:20:14.772Z,0
2017-01-26T03:21:14.746Z,0
2017-01-26T03:22:14.719Z,0
2017-01-26T03:23:14.690Z,0
2017-01-26T03:24:14.660Z,0
2017-01-26T03:25:14.633Z,0
2017-01-26T03:26:14.620Z,0
2017-01-26T03:27:14.587Z,0
2017-01-26T03:28:14.551Z,0
2017-01-26T03:29:14.523Z,0
2017-01-26T03:30:14.494Z,0
2017-01-26T03:31:14.468Z,0
2017-01-26T03:32:14.441Z,0
2017-01-26T03:33:14.408Z,0
2017-01-26T03:34:14.395Z,0
2017-01-26T03:35:14.364Z,0
2017-01-26T03:36:14.356Z,0
2017-01-26T03:37:14.298Z,0
2017-01-26T03:38:14.317Z,0
2017-01-26T03:39:14.270Z,0
2017-01-26T03:40:14.222Z,0
2017-01-26T03:41:14.191Z,0
2017-01-26T03:42:14.167Z,0
2017-01-26T03:43:14.149Z,0
2017-01-26T03:44:14.111Z,0
2017-01-26T03:45:14.087Z,0
2017-01-26T03:46:14.058Z,0
2017-01-26T03:47:14.037Z,0
2017-01-26T03:48:14.006Z,0
2017-01-26T03:49:13.979Z,0
2017-01-26T03:50:14.341Z,0
2017-01-26T03:51:13.928Z,0
2017-01-26T03:52:13.894Z,0
2017-01-26T03:53:13.861Z,0
2017-01-26T03:54:13.841Z,0
2017-01-26T03:55:13.806Z,0
2017-01-26T03:56:13.783Z,0
2017-01-26T03:57:13.753Z,0
2017-01-26T03:58:13.933Z,0
2017-01-26T03:59:13.700Z,0
2017-01-26T04:00:13.687Z,0
2017-01-26T04:01:13.649Z,0
2017-01-26T04:02:13.619Z,0
2017-01-26T04:03:13.598Z,0
2017-01-26T04:04:13.562Z,0
2017-01-26T04:05:13.540Z,0
2017-01-26T04:06:13.511Z,0
2017-01-26T04:07:13.897Z,0
2017-01-26T04:08:13.469Z,0
2017-01-26T04:09:13.431Z,0
2017-01-26T04:10:13.398Z,0
2017-01-26T04:11:13.376Z,0
2017-01-26T04:12:13.343Z,0
2017-01-26T04:13:13.315Z,0
2017-01-26T04:14:13.291Z,0
2017-01-26T04:15:13.264Z,0
2017-01-26T04:16:13.240Z,0
2017-01-26T04:17:13.614Z,0
2017-01-26T04:18:13.580Z,0
2017-01-26T04:19:13.154Z,0
2017-01-26T04:20:13.160Z,0
2017-01-26T04:21:13.134Z,0
2017-01-26T04:22:13.115Z,0
2017-01-26T04:23:13.036Z,0
2017-01-26T04:24:13.019Z,0
2017-01-26T04:25:12.991Z,0
2017-01-26T04:26:12.963Z,0
2017-01-26T04:27:12.938Z,0
2017-01-26T04:28:12.904Z,0
2017-01-26T04:29:12.878Z,0
2017-01-26T04:30:12.849Z,0
2017-01-26T04:31:12.821Z,0
2017-01-26T04:32:12.795Z,0
2017-01-26T04:33:12.768Z,0
2017-01-26T04:34:12.745Z,0
2017-01-26T04:35:12.711Z,0
2017-01-26T04:36:12.687Z,0
2017-01-26T04:37:12.677Z,0
2017-01-26T04:38:12.635Z,0
2017-01-26T04:39:12.614Z,0
2017-01-26T04:40:12.604Z,0
2017-01-26T04:41:12.559Z,0
2017-01-26T04:42:12.533Z,0
2017-01-26T04:43:12.497Z,0
2017-01-26T04:44:12.479Z,0
2017-01-26T04:45:12.441Z,0
2017-01-26T04:46:12.453Z,0
2017-01-26T04:47:12.389Z,0
2017-01-26T04:48:12.356Z,0
2017-01-26T04:49:12.331Z,0
2017-01-26T04:50:12.301Z,0
2017-01-26T04:51:12.280Z,0
2017-01-26T04:52:12.251Z,0
2017-01-26T04:53:12.222Z,0
2017-01-26T04:54:12.185Z,0
2017-01-26T04:55:12.162Z,0
2017-01-26T04:56:12.170Z,0
2017-01-26T04:57:12.107Z,0
2017-01-26T04:58:12.083Z,0
2017-01-26T04:59:12.056Z,0
2017-01-26T05:00:12.024Z,0
2017-01-26T05:01:12.002Z,0
2017-01-26T05:02:11.972Z,0
2017-01-26T05:03:11.944Z,0
2017-01-26T05:04:11.921Z,0
2017-01-26T05:05:11.912Z,0
2017-01-26T05:06:11.853Z,0
2017-01-26T05:07:11.832Z,0
2017-01-26T05:08:11.800Z,0
2017-01-26T05:09:11.779Z,0
2017-01-26T05:10:11.747Z,0
2017-01-26T05:11:11.722Z,0
2017-01-26T05:12:11.688Z,0
2017-01-26T05:13:11.663Z,0
2017-01-26T05:14:11.638Z,0
2017-01-26T05:15:11.609Z,0
2017-01-26T05:16:11.999Z,0
2017-01-26T05:17:11.554Z,0
2017-01-26T05:18:11.530Z,0
2017-01-26T05:19:11.504Z,0
2017-01-26T05:20:11.477Z,0
2017-01-26T05:21:11.447Z,0
2017-01-26T05:22:11.414Z,0
2017-01-26T05:23:11.389Z,0
2017-01-26T05:24:11.366Z,0
2017-01-26T05:25:11.336Z,0
2017-01-26T05:26:11.313Z,0
2017-01-26T05:27:11.281Z,0
2017-01-26T05:28:11.251Z,0
2017-01-26T05:29:11.224Z,0
2017-01-26T05:30:11.193Z,0
2017-01-26T05:31:11.169Z,0
2017-01-26T05:32:11.140Z,0
2017-01-26T05:33:11.119Z,0
2017-01-26T05:34:11.091Z,0
2017-01-26T05:35:11.064Z,0
2017-01-26T05:36:11.033Z,0
2017-01-26T05:37:11.007Z,0
2017-01-26T05:38:10.977Z,0
2017-01-26T05:39:10.950Z,0
2017-01-26T05:40:10.928Z,0
2017-01-26T05:41:10.896Z,0
2017-01-26T05:42:10.891Z,0
2017-01-26T05:43:10.840Z,0
2017-01-26T05:44:10.814Z,0
2017-01-26T05:45:10.783Z,0
2017-01-26T05:46:10.772Z,0
2017-01-26T05:47:10.743Z,0
2017-01-26T05:48:10.706Z,0
2017-01-26T05:49:11.092Z,0
2017-01-26T05:50:10.644Z,0
2017-01-26T05:51:10.622Z,0
2017-01-26T05:52:10.607Z,0
2017-01-26T05:53:10.563Z,0
2017-01-26T05:54:10.535Z,0
2017-01-26T05:55:10.913Z,0
2017-01-26T05:56:10.481Z,0
2017-01-26T05:57:10.454Z,0
2017-01-26T05:58:10.825Z,0
2017-01-26T05:59:10.401Z,0
2017-01-26T06:00:10.368Z,0
2017-01-26T06:01:10.348Z,0
2017-01-26T06:02:10.309Z,0
2017-01-26T06:03:10.286Z,0
2017-01-26T06:04:10.256Z,0
2017-01-26T06:05:10.252Z,0
2017-01-26T06:06:10.211Z,0
2017-01-26T06:07:10.176Z,0
2017-01-26T06:08:10.143Z,0
2017-01-26T06:09:10.112Z,0
2017-01-26T06:10:10.092Z,0
2017-01-26T06:11:10.061Z,0
2017-01-26T06:12:10.036Z,0
2017-01-26T06:13:10.806Z,0
2017-01-26T06:14:09.991Z,0
2017-01-26T06:15:09.949Z,0
2017-01-26T06:16:09.926Z,0
2017-01-26T06:17:09.902Z,0
2017-01-26T06:18:09.868Z,0
2017-01-26T06:19:09.838Z,0
2017-01-26T06:20:09.912Z,0
2017-01-26T06:21:09.804Z,0
2017-01-26T06:22:09.765Z,0
2017-01-26T06:23:09.742Z,0
2017-01-26T06:24:09.699Z,0
2017-01-26T06:25:09.679Z,0
2017-01-26T06:26:09.650Z,0
2017-01-26T06:27:09.615Z,0
2017-01-26T06:28:09.591Z,0
2017-01-26T06:29:09.575Z,0
2017-01-26T06:30:09.539Z,0
2017-01-26T06:31:09.505Z,0
2017-01-26T06:32:09.486Z,0
2017-01-26T06:33:09.451Z,0
2017-01-26T06:34:09.431Z,0
2017-01-26T06:35:09.403Z,0
2017-01-26T06:36:09.364Z,0
2017-01-26T06:37:09.339Z,0
2017-01-26T06:38:09.313Z,0
2017-01-26T06:39:09.286Z,0
2017-01-26T06:40:09.659Z,0
2017-01-26T06:41:09.229Z,0
2017-01-26T06:42:09.203Z,0
2017-01-26T06:43:09.570Z,4
2017-01-26T06:44:09.149Z,0
2017-01-26T06:45:09.118Z,0
2017-01-26T06:46:09.094Z,4
2017-01-26T06:47:09.065Z,0
2017-01-26T06:48:09.042Z,4
2017-01-26T06:49:09.008Z,4
2017-01-26T06:50:09.378Z,4
2017-01-26T06:51:08.953Z,8
2017-01-26T06:52:08.927Z,8
2017-01-26T06:53:08.896Z,8
2017-01-26T06:54:08.869Z,8
2017-01-26T06:55:08.842Z,12
2017-01-26T06:56:08.822Z,16
2017-01-26T06:57:08.791Z,16
2017-01-26T06:58:08.793Z,20
2017-01-26T06:59:08.736Z,24
2017-01-26T07:00:09.132Z,24
2017-01-26T07:01:08.680Z,32
2017-01-26T07:02:08.668Z,36
2017-01-26T07:03:08.630Z,40
2017-01-26T07:04:08.615Z,44
2017-01-26T07:05:08.570Z,56
2017-01-26T07:06:08.546Z,60
2017-01-26T07:07:08.511Z,68
2017-01-26T07:08:08.496Z,76
2017-01-26T07:09:08.453Z,88
2017-01-26T07:10:08.456Z,96
2017-01-26T07:11:08.400Z,108
2017-01-26T07:12:08.777Z,120
2017-01-26T07:13:08.349Z,132
2017-01-26T07:14:08.315Z,148
2017-01-26T07:15:08.303Z,160
2017-01-26T07:16:08.288Z,172
2017-01-26T07:17:08.241Z,192
2017-01-26T07:18:08.215Z,208
2017-01-26T07:19:08.979Z,228
2017-01-26T07:20:08.154Z,244
2017-01-26T07:21:08.135Z,264
2017-01-26T07:22:08.104Z,284
2017-01-26T07:23:08.066Z,304
2017-01-26T07:24:08.042Z,328
2017-01-26T07:25:08.012Z,348
2017-01-26T07:26:07.990Z,368
2017-01-26T07:27:07.961Z,396
2017-01-26T07:28:07.927Z,420
2017-01-26T07:29:07.904Z,444
2017-01-26T07:30:07.880Z,468
2017-01-26T07:31:07.855Z,496
2017-01-26T07:32:07.827Z,520
2017-01-26T07:33:07.788Z,544
2017-01-26T07:34:07.768Z,572
2017-01-26T07:35:08.175Z,600
2017-01-26T07:36:07.713Z,628
2017-01-26T07:37:07.682Z,656
2017-01-26T07:38:07.651Z,684
2017-01-26T07:39:07.631Z,712
2017-01-26T07:40:07.598Z,740
2017-01-26T07:41:07.569Z,772
2017-01-26T07:42:07.542Z,800
2017-01-26T07:43:07.529Z,832
2017-01-26T07:44:07.500Z,864
2017-01-26T07:45:07.464Z,896
2017-01-26T07:46:07.456Z,924
2017-01-26T07:47:07.438Z,956
2017-01-26T07:48:07.375Z,984
2017-01-26T07:49:07.355Z,1008
2017-01-26T07:50:07.325Z,1040
2017-01-26T07:51:07.296Z,1072
2017-01-26T07:52:07.271Z,1104
2017-01-26T07:53:07.245Z,1132
2017-01-26T07:54:07.222Z,1164
2017-01-26T07:55:07.191Z,1196
2017-01-26T07:56:07.163Z,1224
2017-01-26T07:57:07.536Z,1260
2017-01-26T07:58:07.102Z,1292
2017-01-26T07:59:07.073Z,1320
2017-01-26T08:00:07.060Z,1348
2017-01-26T08:01:07.023Z,1372
2017-01-26T08:02:07.000Z,1400
2017-01-26T08:03:06.983Z,1428
2017-01-26T08:04:06.945Z,1456
2017-01-26T08:05:06.916Z,1476
2017-01-26T08:06:06.886Z,1508
2017-01-26T08:07:06.856Z,1532
2017-01-26T08:08:06.833Z,1560
2017-01-26T08:09:06.803Z,1584
2017-01-26T08:10:06.781Z,1612
2017-01-26T08:11:06.750Z,1632
2017-01-26T08:12:06.721Z,1652
2017-01-26T08:13:06.760Z,1680
2017-01-26T08:14:06.664Z,1704
2017-01-26T08:15:06.693Z,1728
2017-01-26T08:16:06.618Z,1760
2017-01-26T08:17:06.594Z,1788
2017-01-26T08:18:06.559Z,1808
2017-01-26T08:19:06.923Z,1832
2017-01-26T08:20:06.561Z,1852
2017-01-26T08:21:06.527Z,1876
2017-01-26T08:22:06.454Z,1900
2017-01-26T08:23:06.426Z,1924
2017-01-26T08:24:06.399Z,1940
2017-01-26T08:25:06.373Z,1964
2017-01-26T08:26:06.345Z,1996
2017-01-26T08:27:06.313Z,2012
2017-01-26T08:28:06.686Z,2032
2017-01-26T08:29:06.263Z,2056
2017-01-26T08:30:06.235Z,2080
2017-01-26T08:31:06.206Z,2100
2017-01-26T08:32:06.182Z,2124
2017-01-26T08:33:06.215Z,2152
2017-01-26T08:34:06.132Z,2172
2017-01-26T08:35:06.498Z,2204
2017-01-26T08:36:06.072Z,2236
2017-01-26T08:37:06.045Z,2276
2017-01-26T08:38:06.038Z,2300
2017-01-26T08:39:06.000Z,2316
2017-01-26T08:40:05.969Z,2332
2017-01-26T08:41:05.941Z,2344
2017-01-26T08:42:05.912Z,2376
2017-01-26T08:43:05.887Z,2408
2017-01-26T08:44:06.307Z,2432
2017-01-26T08:45:05.834Z,2452
2017-01-26T08:46:05.809Z,2468
2017-01-26T08:47:05.822Z,2496
2017-01-26T08:48:05.800Z,2524
2017-01-26T08:49:05.741Z,2540
2017-01-26T08:50:05.730Z,2568
2017-01-26T08:51:06.069Z,2584
2017-01-26T08:52:05.648Z,2608
2017-01-26T08:53:05.628Z,2620
2017-01-26T08:54:05.597Z,2632
2017-01-26T08:55:05.571Z,2664
2017-01-26T08:56:05.544Z,2684
2017-01-26T08:57:05.514Z,2704
2017-01-26T08:58:05.538Z,2724
2017-01-26T08:59:05.469Z,2752
2017-01-26T09:00:05.455Z,2780
2017-01-26T09:01:05.418Z,2808
2017-01-26T09:02:05.394Z,2844
2017-01-26T09:03:05.361Z,2892
2017-01-26T09:04:05.336Z,2932
2017-01-26T09:05:05.309Z,2968
2017-01-26T09:06:05.284Z,2992
2017-01-26T09:07:05.257Z,3012
2017-01-26T09:08:05.234Z,3032
2017-01-26T09:09:05.212Z,3040
2017-01-26T09:10:05.188Z,3060
2017-01-26T09:11:05.175Z,3068
2017-01-26T09:12:05.148Z,3092
2017-01-26T09:13:05.498Z,3092
2017-01-26T09:14:05.471Z,3108
2017-01-26T09:15:05.052Z,3120
2017-01-26T09:16:05.078Z,3152
2017-01-26T09:17:05.003Z,3168
2017-01-26T09:18:04.980Z,3184
2017-01-26T09:19:05.005Z,3212
2017-01-26T09:20:04.948Z,3240
2017-01-26T09:21:05.292Z,3252
2017-01-26T09:22:04.878Z,3276
2017-01-26T09:23:04.859Z,3304
2017-01-26T09:24:04.818Z,3344
2017-01-26T09:25:04.800Z,3380
2017-01-26T09:26:05.168Z,3388
2017-01-26T09:27:05.156Z,3420
2017-01-26T09:28:04.725Z,3444
2017-01-26T09:29:04.755Z,3488
2017-01-26T09:30:04.678Z,3516
2017-01-26T09:31:04.654Z,3540
2017-01-26T09:32:04.636Z,3576
2017-01-26T09:33:04.602Z,3620
2017-01-26T09:34:04.573Z,3700
2017-01-26T09:35:04.545Z,3776
2017-01-26T09:36:04.525Z,3816
2017-01-26T09:37:04.500Z,3852
2017-01-26T09:38:04.474Z,3884
2017-01-26T09:39:04.449Z,3924
2017-01-26T09:40:04.454Z,3956
2017-01-26T09:41:04.394Z,3996
2017-01-26T09:42:04.387Z,4064
2017-01-26T09:43:04.450Z,4228
2017-01-26T09:44:04.321Z,4376
2017-01-26T09:45:04.297Z,5208
2017-01-26T09:46:04.289Z,6460
2017-01-26T09:47:04.250Z,7280
2017-01-26T09:48:04.283Z,6180
2017-01-26T09:49:04.202Z,4628
2017-01-26T09:50:04.178Z,5120
2017-01-26T09:51:04.156Z,7264
2017-01-26T09:52:04.544Z,9952
2017-01-26T09:53:04.115Z,11236
2017-01-26T09:54:04.488Z,11056
2017-01-26T09:55:04.464Z,10500
2017-01-26T09:56:04.042Z,7684
2017-01-26T09:57:04.022Z,4940
2017-01-26T09:58:03.996Z,4708
2017-01-26T09:59:04.179Z,4664
2017-01-26T10:00:04.349Z,4616
2017-01-26T10:01:03.927Z,4568
2017-01-26T10:02:03.917Z,4564
2017-01-26T10:03:04.282Z,5208
2017-01-26T10:04:03.870Z,7812
2017-01-26T10:05:03.869Z,10504
2017-01-26T10:06:03.823Z,10728
2017-01-26T10:07:03.797Z,9028
2017-01-26T10:08:03.783Z,8860
2017-01-26T10:09:04.156Z,8556
2017-01-26T10:10:03.744Z,7040
2017-01-26T10:11:03.731Z,6700
2017-01-26T10:12:03.697Z,8028
2017-01-26T10:13:03.693Z,9176
2017-01-26T10:14:03.658Z,8228
2017-01-26T10:15:03.638Z,7988
2017-01-26T10:16:03.647Z,8220
2017-01-26T10:17:03.608Z,8600
2017-01-26T10:18:03.583Z,9112
2017-01-26T10:19:03.560Z,8000
2017-01-26T10:20:03.545Z,7368
2017-01-26T10:21:03.950Z,6120
2017-01-26T10:22:03.507Z,5624
2017-01-26T10:23:03.892Z,5648
2017-01-26T10:24:03.484Z,5744
2017-01-26T10:25:03.465Z,5856
2017-01-26T10:26:03.437Z,6108
2017-01-26T10:27:03.413Z,8404
2017-01-26T10:28:03.393Z,9472
2017-01-26T10:29:03.773Z,9148
2017-01-26T10:30:03.356Z,10180
2017-01-26T10:31:03.741Z,9256
2017-01-26T10:32:04.117Z,10896
2017-01-26T10:33:03.314Z,15680
2017-01-26T10:34:03.278Z,19712
2017-01-26T10:35:03.265Z,21792
2017-01-26T10:36:03.246Z,21728
2017-01-26T10:37:03.229Z,19488
2017-01-26T10:38:03.662Z,17312
2017-01-26T10:39:03.197Z,15584
2017-01-26T10:40:03.177Z,14880
2017-01-26T10:41:03.214Z,14848
2017-01-26T10:42:03.142Z,14848
2017-01-26T10:43:03.137Z,15456
2017-01-26T10:44:03.118Z,16384
2017-01-26T10:45:03.099Z,18528
2017-01-26T10:46:03.092Z,18464
2017-01-26T10:47:03.064Z,19008
2017-01-26T10:48:03.050Z,20000
2017-01-26T10:49:03.037Z,20000
2017-01-26T10:50:03.064Z,20416
2017-01-26T10:51:03.012Z,18016
2017-01-26T10:52:03.003Z,15140
2017-01-26T10:53:03.384Z,12756
2017-01-26T10:54:02.966Z,10756
2017-01-26T10:55:02.952Z,8924
2017-01-26T10:56:02.945Z,7988
2017-01-26T10:57:02.920Z,8104
2017-01-26T10:58:02.916Z,9000
2017-01-26T10:59:02.897Z,9668
2017-01-26T11:00:02.881Z,12108
2017-01-26T11:01:02.873Z,15148
2017-01-26T11:02:02.857Z,17120
2017-01-26T11:03:02.870Z,17984
2017-01-26T11:04:02.879Z,16688
2017-01-26T11:05:02.823Z,14224
2017-01-26T11:06:02.821Z,12176
2017-01-26T11:07:02.790Z,8272
2017-01-26T11:08:02.780Z,8668
2017-01-26T11:09:02.769Z,8152
2017-01-26T11:10:02.756Z,7824
2017-01-26T11:11:03.132Z,9188
2017-01-26T11:12:02.741Z,9452
2017-01-26T11:13:02.739Z,11168
2017-01-26T11:14:02.728Z,16900
2017-01-26T11:15:02.688Z,17420
2017-01-26T11:16:02.678Z,17500
2017-01-26T11:17:02.660Z,20384
2017-01-26T11:18:02.758Z,21984
2017-01-26T11:19:03.031Z,20672
2017-01-26T11:20:02.626Z,15680
2017-01-26T11:21:02.605Z,12320
2017-01-26T11:22:02.596Z,12256
2017-01-26T11:23:02.584Z,12428
2017-01-26T11:24:02.572Z,12972
2017-01-26T11:25:02.564Z,17856
2017-01-26T11:26:02.947Z,22336
2017-01-26T11:27:02.543Z,22304
2017-01-26T11:28:02.520Z,19180
2017-01-26T11:29:02.515Z,16632
2017-01-26T11:30:02.494Z,16444
2017-01-26T11:31:02.882Z,16672
2017-01-26T11:32:02.472Z,17024
2017-01-26T11:33:02.462Z,16032
2017-01-26T11:34:02.446Z,14432
2017-01-26T11:35:02.839Z,15136
2017-01-26T11:36:02.434Z,14588
2017-01-26T11:37:03.209Z,16124
2017-01-26T11:38:52.533Z,20128
2017-01-26T11:39:30.335Z,22848
2017-01-26T11:40:30.318Z,24832
2017-01-26T11:41:30.314Z,24000
2017-01-26T11:42:30.298Z,23872
2017-01-26T11:43:30.388Z,21888
2017-01-26T11:44:30.272Z,18720
2017-01-26T11:45:30.265Z,14140
2017-01-26T11:46:30.254Z,10600
2017-01-26T11:47:30.239Z,8388
2017-01-26T11:48:30.242Z,6952
2017-01-26T11:49:30.213Z,6100
2017-01-26T11:50:30.210Z,6036
2017-01-26T11:51:30.189Z,5988
2017-01-26T11:52:30.185Z,5916
2017-01-26T11:53:30.173Z,5784
2017-01-26T11:54:30.156Z,5788
2017-01-26T11:55:30.146Z,5776
2017-01-26T11:56:30.123Z,5752
2017-01-26T11:57:30.120Z,5824
2017-01-26T11:58:30.502Z,5888
2017-01-26T11:59:30.083Z,6036
2017-01-26T12:00:30.072Z,6072
2017-01-26T12:01:30.456Z,6092
2017-01-26T12:02:30.432Z,6044
2017-01-26T12:03:30.026Z,6064
2017-01-26T12:04:30.002Z,6264
2017-01-26T12:05:29.995Z,7864
2017-01-26T12:06:30.387Z,8156
2017-01-26T12:07:29.958Z,6960
2017-01-26T12:08:29.945Z,6840
2017-01-26T12:09:29.934Z,6936
2017-01-26T12:10:29.909Z,7824
2017-01-26T12:11:33.820Z,9224
2017-01-26T12:12:29.877Z,9732
2017-01-26T12:13:29.856Z,9748
2017-01-26T12:14:29.838Z,14672
2017-01-26T12:15:29.828Z,22112
2017-01-26T12:16:29.807Z,25216
2017-01-26T12:17:29.788Z,25728
2017-01-26T12:18:29.775Z,25632
2017-01-26T12:19:29.760Z,25152
2017-01-26T12:20:30.142Z,24256
2017-01-26T12:21:29.732Z,22592
2017-01-26T12:22:29.720Z,20928
2017-01-26T12:23:29.751Z,20352
2017-01-26T12:24:29.699Z,20480
2017-01-26T12:25:29.680Z,21120
2017-01-26T12:26:30.072Z,21984
2017-01-26T12:27:29.656Z,23584
2017-01-26T12:28:29.630Z,25248
2017-01-26T12:29:29.654Z,25984
2017-01-26T12:30:29.617Z,26208
2017-01-26T12:31:29.600Z,25984
2017-01-26T12:32:29.589Z,24864
2017-01-26T12:33:29.582Z,23712
2017-01-26T12:34:29.570Z,22816
2017-01-26T12:35:29.565Z,22496
2017-01-26T12:36:29.546Z,23072
2017-01-26T12:37:29.536Z,24224
2017-01-26T12:38:29.581Z,25120
2017-01-26T12:39:29.525Z,25568
2017-01-26T12:40:29.516Z,24544
2017-01-26T12:41:29.511Z,22784
2017-01-26T12:42:29.502Z,21120
2017-01-26T12:43:29.540Z,20096
2017-01-26T12:44:29.508Z,19616
2017-01-26T12:45:29.480Z,19200
2017-01-26T12:46:29.467Z,19328
2017-01-26T12:47:29.460Z,19520
2017-01-26T12:48:29.501Z,19392
2017-01-26T12:49:29.444Z,19360
2017-01-26T12:50:29.432Z,18784
2017-01-26T12:51:29.425Z,18368
2017-01-26T12:52:29.417Z,18336
2017-01-26T12:53:29.413Z,18624
2017-01-26T12:54:29.405Z,19168
2017-01-26T12:55:29.402Z,19296
2017-01-26T12:56:29.394Z,19456
2017-01-26T12:57:29.458Z,19744
2017-01-26T12:58:29.376Z,20256
2017-01-26T12:59:29.763Z,20736
2017-01-26T13:00:29.367Z,20960
2017-01-26T13:01:29.353Z,21248
2017-01-26T13:02:29.753Z,21536
2017-01-26T13:03:29.396Z,21760
2017-01-26T13:04:29.337Z,21952
2017-01-26T13:05:29.326Z,21120
2017-01-26T13:06:29.327Z,21248
2017-01-26T13:07:29.328Z,21248
2017-01-26T13:08:29.313Z,21344
2017-01-26T13:09:29.301Z,21344
2017-01-26T13:10:29.300Z,21184
2017-01-26T13:11:29.298Z,20896
2017-01-26T13:12:29.286Z,21248
2017-01-26T13:13:29.279Z,21888
2017-01-26T13:14:29.271Z,21824
2017-01-26T13:15:29.270Z,21664
2017-01-26T13:16:29.662Z,20800
2017-01-26T13:17:29.253Z,18720
2017-01-26T13:18:29.244Z,17024
2017-01-26T13:19:29.242Z,15712
2017-01-26T13:20:29.234Z,15552
2017-01-26T13:21:29.233Z,16096
2017-01-26T13:22:29.219Z,17024
2017-01-26T13:23:29.224Z,17664
2017-01-26T13:24:29.211Z,17728
2017-01-26T13:25:29.207Z,16832
2017-01-26T13:26:29.200Z,16288
2017-01-26T13:27:30.385Z,16576
2017-01-26T13:28:30.375Z,17344
2017-01-26T13:29:30.401Z,17952
2017-01-26T13:30:30.366Z,18368
2017-01-26T13:31:30.364Z,18976
2017-01-26T13:32:30.359Z,19744
2017-01-26T13:33:30.354Z,20096
2017-01-26T13:34:30.349Z,20288
2017-01-26T13:35:30.341Z,19648
2017-01-26T13:36:30.332Z,18208
2017-01-26T13:37:30.330Z,16960
2017-01-26T13:38:30.325Z,16672
2017-01-26T13:39:29.922Z,17536
2017-01-26T13:40:30.309Z,18624
2017-01-26T13:41:30.303Z,19200
2017-01-26T13:42:29.904Z,19040
2017-01-26T13:43:30.285Z,18304
2017-01-26T13:44:30.293Z,17184
2017-01-26T13:45:30.270Z,16160
2017-01-26T13:46:30.258Z,15872
2017-01-26T13:47:30.263Z,16608
2017-01-26T13:48:30.270Z,17568
2017-01-26T13:49:30.244Z,17952
2017-01-26T13:50:30.242Z,17856
2017-01-26T13:51:30.234Z,16928
2017-01-26T13:52:29.836Z,15712
2017-01-26T13:53:30.232Z,14464
2017-01-26T13:54:30.234Z,14080
2017-01-26T13:55:30.213Z,14272
2017-01-26T13:56:30.204Z,14720